LXJ259 LEPA-DTTA
Flight info
| Callsign | LXJ259 |
|---|---|
| Flight time | N/A |
| Altitude | 39000 |
| Route | OSGAL N859 GENIO M134 LUXUR/N0513F390 UM134 ANB UA411 MORJA/N0483F230 A411 KEMIR DCT ROVIL |
| Aircraft | C750/M-SBDE3FGHRWXY/S |
Departure
| Time | N/A |
|---|---|
| Airport | Palma de Mallorca Airport (LEPA) |
Arrival
| Time | 2026-04-28 10:19 |
|---|---|
| Airport | Tunis Carthage International Airport (DTTA) |
| Time | Latitude | Longitude | Altitude | Speed | Heading |
|---|---|---|---|---|---|
| 2026-04-28 09:39 | 37.41729 | 5.52982 | 35301 ft | 486 kts | 110° |
| 2026-04-28 09:39 | 37.41278 | 5.54797 | 34934 ft | 481 kts | 110° |
| 2026-04-28 09:40 | 37.40119 | 5.58688 | 34110 ft | 467 kts | 117° |
| 2026-04-28 09:40 | 37.38720 | 5.62366 | 33299 ft | 458 kts | 115° |
| 2026-04-28 09:40 | 37.38007 | 5.66259 | 32486 ft | 456 kts | 99° |
| 2026-04-28 09:40 | 37.37474 | 5.70214 | 31634 ft | 447 kts | 107° |
| 2026-04-28 09:41 | 37.36586 | 5.73930 | 30771 ft | 438 kts | 110° |
| 2026-04-28 09:41 | 37.35693 | 5.77554 | 29894 ft | 428 kts | 110° |
| 2026-04-28 09:41 | 37.34814 | 5.81093 | 29021 ft | 418 kts | 110° |
| 2026-04-28 09:41 | 37.33947 | 5.84587 | 28149 ft | 410 kts | 110° |
| 2026-04-28 09:42 | 37.33112 | 5.87960 | 27293 ft | 402 kts | 110° |
| 2026-04-28 09:42 | 37.32275 | 5.91325 | 26424 ft | 394 kts | 109° |
| 2026-04-28 09:42 | 37.31461 | 5.94601 | 25569 ft | 387 kts | 109° |
| 2026-04-28 09:42 | 37.30653 | 5.97851 | 24706 ft | 380 kts | 109° |
| 2026-04-28 09:43 | 37.29863 | 6.01022 | 23849 ft | 374 kts | 109° |
| 2026-04-28 09:43 | 37.29083 | 6.04146 | 22990 ft | 368 kts | 108° |
| 2026-04-28 09:43 | 37.28316 | 6.07224 | 22129 ft | 363 kts | 108° |
| 2026-04-28 09:43 | 37.27559 | 6.10259 | 21272 ft | 358 kts | 108° |
| 2026-04-28 09:44 | 37.26806 | 6.13268 | 20415 ft | 353 kts | 108° |
| 2026-04-28 09:44 | 37.26059 | 6.16250 | 19558 ft | 349 kts | 108° |
| 2026-04-28 09:44 | 37.25325 | 6.19171 | 18722 ft | 345 kts | 108° |
| 2026-04-28 09:44 | 37.24598 | 6.22070 | 17880 ft | 342 kts | 108° |
| 2026-04-28 09:45 | 37.23881 | 6.24924 | 17063 ft | 338 kts | 109° |
| 2026-04-28 09:45 | 37.23175 | 6.27728 | 16252 ft | 335 kts | 108° |
| 2026-04-28 09:45 | 37.22468 | 6.30530 | 15433 ft | 332 kts | 109° |
| 2026-04-28 09:45 | 37.21760 | 6.33338 | 14601 ft | 328 kts | 109° |
| 2026-04-28 09:46 | 37.21078 | 6.36038 | 13796 ft | 325 kts | 109° |
| 2026-04-28 09:46 | 37.20381 | 6.38795 | 12968 ft | 322 kts | 109° |
| 2026-04-28 09:46 | 37.19700 | 6.41482 | 12156 ft | 320 kts | 109° |
| 2026-04-28 09:46 | 37.19020 | 6.44158 | 11336 ft | 317 kts | 109° |
| 2026-04-28 09:47 | 37.18349 | 6.46800 | 10509 ft | 314 kts | 109° |
| 2026-04-28 09:47 | 37.17699 | 6.49364 | 10206 ft | 294 kts | 109° |
| 2026-04-28 09:47 | 37.17072 | 6.51835 | 9961 ft | 291 kts | 109° |
| 2026-04-28 09:47 | 37.16439 | 6.54312 | 9952 ft | 294 kts | 109° |
| 2026-04-28 09:48 | 37.15811 | 6.56777 | 9948 ft | 296 kts | 109° |
| 2026-04-28 09:48 | 37.15171 | 6.59285 | 9947 ft | 297 kts | 109° |
| 2026-04-28 09:48 | 37.14529 | 6.61798 | 9471 ft | 296 kts | 108° |
| 2026-04-28 09:48 | 37.13895 | 6.64281 | 8959 ft | 291 kts | 108° |
| 2026-04-28 09:49 | 37.13272 | 6.66714 | 8452 ft | 287 kts | 109° |
| 2026-04-28 09:49 | 37.12661 | 6.69100 | 7958 ft | 286 kts | 109° |
| 2026-04-28 09:49 | 37.12051 | 6.71481 | 7753 ft | 278 kts | 109° |
| 2026-04-28 09:49 | 37.11452 | 6.73822 | 7546 ft | 278 kts | 109° |
| 2026-04-28 09:50 | 37.10857 | 6.76140 | 7445 ft | 272 kts | 109° |
| 2026-04-28 09:50 | 37.09757 | 6.80419 | 7435 ft | 270 kts | 109° |
| 2026-04-28 09:50 | 37.08590 | 6.84955 | 7446 ft | 274 kts | 109° |
| 2026-04-28 09:50 | 37.06438 | 6.93285 | 7467 ft | 280 kts | 109° |
| 2026-04-28 09:51 | 37.03989 | 7.02750 | 7426 ft | 284 kts | 109° |
| 2026-04-28 09:51 | 37.01475 | 7.12401 | 7463 ft | 287 kts | 109° |
| 2026-04-28 09:51 | 36.98991 | 7.21911 | 7448 ft | 284 kts | 109° |
| 2026-04-28 09:51 | 36.97126 | 7.29043 | 7446 ft | 281 kts | 109° |
| 2026-04-28 09:52 | 36.96511 | 7.31383 | 7270 ft | 282 kts | 109° |
| 2026-04-28 09:52 | 36.95902 | 7.33702 | 6961 ft | 277 kts | 108° |
| 2026-04-28 09:52 | 36.95291 | 7.36031 | 6645 ft | 273 kts | 109° |
| 2026-04-28 09:52 | 36.94693 | 7.38307 | 6307 ft | 270 kts | 109° |
| 2026-04-28 09:53 | 36.94101 | 7.40555 | 6009 ft | 267 kts | 109° |
| 2026-04-28 09:53 | 36.93515 | 7.42777 | 5720 ft | 265 kts | 109° |
| 2026-04-28 09:53 | 36.92941 | 7.44961 | 5431 ft | 264 kts | 109° |
| 2026-04-28 09:53 | 36.92357 | 7.47170 | 5128 ft | 262 kts | 109° |
| 2026-04-28 09:54 | 36.91779 | 7.49353 | 4823 ft | 261 kts | 109° |
| 2026-04-28 09:54 | 36.91209 | 7.51507 | 4609 ft | 256 kts | 109° |
| 2026-04-28 09:54 | 36.90647 | 7.53637 | 4427 ft | 251 kts | 109° |
| 2026-04-28 09:54 | 36.90101 | 7.55697 | 4507 ft | 238 kts | 109° |
| 2026-04-28 09:55 | 36.89579 | 7.57668 | 4821 ft | 236 kts | 109° |
| 2026-04-28 09:55 | 36.89056 | 7.59638 | 4949 ft | 243 kts | 109° |
| 2026-04-28 09:55 | 36.88502 | 7.61722 | 4964 ft | 250 kts | 109° |
| 2026-04-28 09:55 | 36.87945 | 7.63815 | 4949 ft | 246 kts | 109° |
| 2026-04-28 09:56 | 36.87397 | 7.65881 | 4721 ft | 255 kts | 109° |
| 2026-04-28 09:56 | 36.86817 | 7.68053 | 4407 ft | 258 kts | 109° |
| 2026-04-28 09:56 | 36.86243 | 7.70209 | 4090 ft | 261 kts | 109° |
| 2026-04-28 09:56 | 36.85659 | 7.72400 | 3963 ft | 255 kts | 109° |
| 2026-04-28 09:57 | 36.85101 | 7.74499 | 3942 ft | 247 kts | 109° |
| 2026-04-28 09:57 | 36.84558 | 7.76534 | 3940 ft | 239 kts | 109° |
| 2026-04-28 09:57 | 36.84023 | 7.78535 | 3949 ft | 242 kts | 109° |
| 2026-04-28 09:57 | 36.83480 | 7.80563 | 3954 ft | 247 kts | 109° |
| 2026-04-28 09:58 | 36.83202 | 7.82745 | 3957 ft | 251 kts | 89° |
| 2026-04-28 09:58 | 36.83250 | 7.84977 | 3957 ft | 254 kts | 90° |
| 2026-04-28 09:58 | 36.83269 | 7.87211 | 3954 ft | 256 kts | 90° |
| 2026-04-28 09:58 | 36.83285 | 7.89504 | 3953 ft | 258 kts | 90° |
| 2026-04-28 09:59 | 36.83300 | 7.91774 | 3951 ft | 260 kts | 91° |
| 2026-04-28 09:59 | 36.83311 | 7.94047 | 3947 ft | 257 kts | 91° |
| 2026-04-28 09:59 | 36.83322 | 7.96326 | 3952 ft | 258 kts | 90° |
| 2026-04-28 09:59 | 36.83333 | 7.98601 | 3958 ft | 260 kts | 90° |
| 2026-04-28 10:00 | 36.83344 | 8.00912 | 3951 ft | 262 kts | 91° |
| 2026-04-28 10:00 | 36.83351 | 8.03256 | 3948 ft | 264 kts | 91° |
| 2026-04-28 10:00 | 36.83361 | 8.05593 | 3954 ft | 265 kts | 90° |
| 2026-04-28 10:00 | 36.83371 | 8.07920 | 3953 ft | 266 kts | 90° |
| 2026-04-28 10:01 | 36.83387 | 8.12785 | 3944 ft | 267 kts | 91° |
| 2026-04-28 10:01 | 36.83417 | 8.22419 | 3933 ft | 267 kts | 91° |
| 2026-04-28 10:01 | 36.83434 | 8.31745 | 3948 ft | 268 kts | 90° |
| 2026-04-28 10:01 | 36.83445 | 8.39428 | 3958 ft | 268 kts | 91° |
| 2026-04-28 10:02 | 36.83448 | 8.41792 | 4112 ft | 262 kts | 91° |
| 2026-04-28 10:02 | 36.83450 | 8.44057 | 4624 ft | 257 kts | 91° |
| 2026-04-28 10:02 | 36.83451 | 8.46380 | 5167 ft | 269 kts | 91° |
| 2026-04-28 10:02 | 36.83449 | 8.48809 | 5676 ft | 280 kts | 90° |
| 2026-04-28 10:03 | 36.83450 | 8.51285 | 5931 ft | 286 kts | 90° |
| 2026-04-28 10:03 | 36.83452 | 8.53775 | 5927 ft | 276 kts | 90° |
| 2026-04-28 10:03 | 36.83451 | 8.56205 | 5965 ft | 276 kts | 90° |
| 2026-04-28 10:03 | 36.83450 | 8.58648 | 5954 ft | 277 kts | 90° |
| 2026-04-28 10:04 | 36.83448 | 8.61087 | 5955 ft | 277 kts | 90° |
| 2026-04-28 10:04 | 36.83445 | 8.63512 | 5971 ft | 277 kts | 90° |
| 2026-04-28 10:04 | 36.83430 | 8.65970 | 5967 ft | 277 kts | 92° |
| 2026-04-28 10:04 | 36.83375 | 8.68364 | 5962 ft | 277 kts | 92° |
| 2026-04-28 10:05 | 36.83222 | 8.75493 | 5973 ft | 278 kts | 93° |
| 2026-04-28 10:05 | 36.83006 | 8.85310 | 5961 ft | 278 kts | 93° |
| 2026-04-28 10:05 | 36.82778 | 8.95056 | 5962 ft | 278 kts | 92° |
| 2026-04-28 10:05 | 36.82748 | 9.02868 | 5959 ft | 278 kts | 86° |
| 2026-04-28 10:06 | 36.82873 | 9.05314 | 5972 ft | 276 kts | 88° |
| 2026-04-28 10:06 | 36.82956 | 9.07723 | 5971 ft | 269 kts | 89° |
| 2026-04-28 10:06 | 36.83025 | 9.10087 | 5723 ft | 266 kts | 89° |
| 2026-04-28 10:06 | 36.83086 | 9.12370 | 5411 ft | 260 kts | 89° |
| 2026-04-28 10:07 | 36.83141 | 9.14642 | 5114 ft | 258 kts | 89° |
| 2026-04-28 10:07 | 36.83194 | 9.16907 | 4811 ft | 256 kts | 89° |
| 2026-04-28 10:07 | 36.83247 | 9.19149 | 4510 ft | 254 kts | 90° |
| 2026-04-28 10:07 | 36.83299 | 9.21408 | 4203 ft | 253 kts | 90° |
| 2026-04-28 10:08 | 36.83349 | 9.23612 | 3907 ft | 251 kts | 90° |
| 2026-04-28 10:08 | 36.83398 | 9.25821 | 3611 ft | 250 kts | 90° |
| 2026-04-28 10:08 | 36.83448 | 9.28039 | 3332 ft | 251 kts | 90° |
| 2026-04-28 10:08 | 36.83496 | 9.30216 | 3271 ft | 243 kts | 90° |
| 2026-04-28 10:09 | 36.83542 | 9.32326 | 3269 ft | 234 kts | 89° |
| 2026-04-28 10:09 | 36.83815 | 9.34355 | 3271 ft | 229 kts | 78° |
| 2026-04-28 10:09 | 36.84181 | 9.36323 | 3285 ft | 235 kts | 79° |
| 2026-04-28 10:09 | 36.84563 | 9.38377 | 3299 ft | 242 kts | 78° |
| 2026-04-28 10:10 | 36.84963 | 9.40483 | 3288 ft | 245 kts | 78° |
| 2026-04-28 10:10 | 36.85366 | 9.42588 | 3285 ft | 246 kts | 78° |
| 2026-04-28 10:10 | 36.85770 | 9.44703 | 3284 ft | 243 kts | 78° |
| 2026-04-28 10:10 | 36.86167 | 9.46773 | 3285 ft | 241 kts | 78° |
| 2026-04-28 10:11 | 36.86565 | 9.48852 | 3291 ft | 240 kts | 79° |
| 2026-04-28 10:11 | 36.86952 | 9.50900 | 3296 ft | 238 kts | 78° |
| 2026-04-28 10:11 | 36.87346 | 9.52958 | 3293 ft | 237 kts | 78° |
| 2026-04-28 10:11 | 36.87731 | 9.54984 | 3288 ft | 236 kts | 78° |
| 2026-04-28 10:12 | 36.88117 | 9.57012 | 3288 ft | 235 kts | 78° |
| 2026-04-28 10:12 | 36.88506 | 9.59052 | 3288 ft | 235 kts | 78° |
| 2026-04-28 10:12 | 36.88886 | 9.61051 | 3290 ft | 234 kts | 79° |
| 2026-04-28 10:12 | 36.89268 | 9.63066 | 3288 ft | 233 kts | 79° |
| 2026-04-28 10:13 | 36.89644 | 9.65064 | 3313 ft | 229 kts | 79° |
| 2026-04-28 10:13 | 36.90232 | 9.68165 | 3292 ft | 230 kts | 79° |
| 2026-04-28 10:13 | 36.93218 | 9.84000 | 3290 ft | 230 kts | 79° |
| 2026-04-28 10:13 | 36.96193 | 9.99911 | 3280 ft | 230 kts | 80° |
| 2026-04-28 10:14 | 36.99148 | 10.15833 | 3293 ft | 230 kts | 80° |
| 2026-04-28 10:14 | 37.01530 | 10.28754 | 3291 ft | 229 kts | 80° |
| 2026-04-28 10:14 | 37.01886 | 10.30730 | 3302 ft | 229 kts | 80° |
| 2026-04-28 10:14 | 37.02254 | 10.32738 | 3170 ft | 232 kts | 79° |
| 2026-04-28 10:15 | 37.02620 | 10.34727 | 2991 ft | 231 kts | 79° |
| 2026-04-28 10:15 | 37.02980 | 10.36701 | 2819 ft | 228 kts | 79° |
| 2026-04-28 10:15 | 37.03347 | 10.38641 | 2632 ft | 219 kts | 79° |
| 2026-04-28 10:15 | 37.03684 | 10.40482 | 2442 ft | 211 kts | 79° |
| 2026-04-28 10:16 | 37.03977 | 10.42262 | 2241 ft | 203 kts | 88° |
| 2026-04-28 10:16 | 37.03558 | 10.43882 | 2035 ft | 192 kts | 133° |
| 2026-04-28 10:16 | 37.02387 | 10.44555 | 1992 ft | 182 kts | 176° |
| 2026-04-28 10:16 | 37.01240 | 10.44006 | 1980 ft | 177 kts | 220° |
| 2026-04-28 10:17 | 37.00710 | 10.42637 | 1977 ft | 173 kts | 263° |
| 2026-04-28 10:17 | 37.01022 | 10.41216 | 1978 ft | 166 kts | 304° |
| 2026-04-28 10:17 | 37.01796 | 10.40208 | 1972 ft | 148 kts | 314° |
| 2026-04-28 10:17 | 37.02246 | 10.39144 | 1933 ft | 126 kts | 273° |
| 2026-04-28 10:18 | 37.02178 | 10.38059 | 1658 ft | 127 kts | 247° |
| 2026-04-28 10:18 | 37.01719 | 10.37080 | 1205 ft | 138 kts | 214° |
| 2026-04-28 10:18 | 37.00888 | 10.36590 | 1062 ft | 122 kts | 196° |
| 2026-04-28 10:18 | 37.00015 | 10.36228 | 615 ft | 137 kts | 193° |
| 2026-04-28 10:19 | 36.99134 | 10.35872 | 453 ft | 129 kts | 197° |
| 2026-04-28 10:19 | 36.98289 | 10.35417 | 135 ft | 133 kts | 197° |
| 2026-04-28 10:19 | 36.97466 | 10.35027 | 155 ft | 107 kts | 198° |
| 2026-04-28 10:19 | 36.96968 | 10.34770 | 0 ft | 16 kts | 201° |
| 2026-04-28 10:20 | 36.96943 | 10.34758 | 0 ft | 8 kts | 204° |